Terminal Aerodrome Forecast
Issued by NWS Duluth, MN

Home | Current Version | Previous Version | Text Only | Print | Product List | Glossary On
Versions: 1 2 3 4 5 6 7 8 9 10 11 12 13 14 15 16 17 18 19 20 21 22 23 24 25 26 27 28 29 30 31 32 33 34 35 36 37 38 39 40 41 42 43 44 45 46
000
FTUS43 KDLH 202200 AAB
TAFDLH
TAF AMD
KDLH 202200Z 2022/2118 14007KT P6SM BKN035
     FM210300 10006KT 5SM BR SCT012 BKN050
     FM210500 VRB04KT 3SM BR SCT008 OVC015
     FM210800 VRB03KT 1 1/2SM BR SCT004 OVC008
     FM211500 08005KT 5SM BR VCSH OVC015=

USA.gov is the U.S. government's official web portal to all federal, state and local government web resources and services.